Home > Products > Valid Products > MTR

000
SAUS45 KRIW 050258
MTRP60
METAR KP60 050256Z AUTO 00000KT 06/M01 A3021 RMK AO1 SLP201
T00561006 55004 $





000
SAUS45 KRIW 050158
MTRP60
METAR KP60 050156Z AUTO 00000KT 10/01 A3020 RMK AO1 SLP193 T01000006
$





000
SAUS45 KRIW 050058
MTRP60
METAR KP60 050056Z AUTO 00000KT 12/M02 A3021 RMK AO1 SLP199
T01221017 $





000
SAUS45 KRIW 050058
MTRP60
METAR KP60 050056Z AUTO 00000KT 12/M02 A3021 RMK AO1 SLP199
T01221017 $





000
SAUS45 KRIW 042358
MTRP60
METAR KP60 042356Z AUTO 00000KT 14/M05 A3022 RMK AO1 SLP200
T01391050 10167 20106 56009 $





000
SAUS45 KRIW 042358
MTRP60
METAR KP60 042356Z AUTO 00000KT 14/M05 A3022 RMK AO1 SLP200
T01391050 10167 20106 56009 $





000
SAUS45 KRIW 042258
MTRP60
METAR KP60 042256Z AUTO 00000KT 14/M05 A3023 RMK AO1 SLP203
T01391050 $





000
SAUS45 KRIW 042258
MTRP60
METAR KP60 042256Z AUTO 00000KT 14/M05 A3023 RMK AO1 SLP203
T01391050 $





000
SAUS45 KRIW 042158
MTRP60
METAR KP60 042156Z AUTO VRB04KT 15/M04 A3023 RMK AO1 SLP201
T01501044 $





000
SAUS45 KRIW 042158
MTRP60
METAR KP60 042156Z AUTO VRB04KT 15/M04 A3023 RMK AO1 SLP201
T01501044 $





000
SAUS45 KRIW 042057
MTRP60
METAR KP60 042056Z AUTO 13008KT 100V160 16/M05 A3026 RMK AO1 SLP203
T01611050 58013 $





000
SAUS45 KRIW 042057
MTRP60
METAR KP60 042056Z AUTO 13008KT 100V160 16/M05 A3026 RMK AO1 SLP203
T01611050 58013 $





000
SAUS45 KRIW 041957
MTRP60
METAR KP60 041956Z AUTO VRB03KT 17/M05 A3027 RMK AO1 SLP209
T01671050 $





000
SAUS45 KRIW 041857
MTRP60
METAR KP60 041856Z AUTO VRB04KT 15/M06 A3029 RMK AO1 SLP215
T01501056 $





000
SAUS45 KRIW 041857
MTRP60
METAR KP60 041856Z AUTO VRB04KT 15/M06 A3029 RMK AO1 SLP215
T01501056 $





000
SAUS45 KRIW 041757
MTRP60
METAR KP60 041756Z AUTO 00000KT 11/M04 A3031 RMK AO1 SLP230
T01111044 10117 21033 56009 $





000
SAUS45 KRIW 041757
MTRP60
METAR KP60 041756Z AUTO 00000KT 11/M04 A3031 RMK AO1 SLP230
T01111044 10117 21033 56009 $





000
SAUS45 KRIW 041657
MTRP60
METAR KP60 041656Z AUTO 11003KT 09/M05 A3031 RMK AO1 SLP236
T00891050 $





000
SAUS45 KRIW 041557
MTRP60
METAR KP60 041556Z AUTO 00000KT 07/M04 A3032 RMK AO1 SLP244
T00671044 $





000
SAUS45 KRIW 041458
MTRP60
METAR KP60 041456Z AUTO 00000KT 03/M04 A3034 RMK AO1 SLP252
T00331044 50001 $





000
SAUS45 KRIW 041357
MTRP60
METAR KP60 041356Z AUTO 00000KT 01/M04 A3034 RMK AO1 SLP240
T00061039 $





000
SAUS45 KRIW 041357
MTRP60
METAR KP60 041356Z AUTO 00000KT 01/M04 A3034 RMK AO1 SLP240
T00061039 $





000
SAUS45 KRIW 041257
MTRP60
METAR KP60 041256Z AUTO 00000KT M03/M06 A3034 RMK AO1 SLP249
T10281056 $





000
SAUS45 KRIW 041257
MTRP60
METAR KP60 041256Z AUTO 00000KT M03/M06 A3034 RMK AO1 SLP249
T10281056 $





000
SAUS45 KRIW 041158
MTRP60
METAR KP60 041156Z AUTO 00000KT M03/M06 A3033 RMK AO1 SLP247
T10331056 11006 21033 56006 $





000
SAUS45 KRIW 041058
MTRP60
METAR KP60 041056Z AUTO 00000KT M03/M06 A3034 RMK AO1 SLP256
T10331056 $





000
SAUS45 KRIW 041058
MTRP60
METAR KP60 041056Z AUTO 00000KT M03/M06 A3034 RMK AO1 SLP256
T10331056 $





000
SAUS45 KRIW 040959 COR
MTRP60
METAR KP60 040956Z AUTO 00000KT M03/M05 A3035 RMK AO1 SLP251
T10281050 $





000
SAUS45 KRIW 040959 COR
MTRP60
METAR KP60 040956Z AUTO 00000KT M03/M05 A3035 RMK AO1 SLP251
T10281050 $





000
SAUS45 KRIW 040857
MTRP60
METAR KP60 040856Z AUTO 00000KT M02/M05 A3036 RMK AO1 SLP251
T10221050 50003 $





000
SAUS45 KRIW 040857
MTRP60
METAR KP60 040856Z AUTO 00000KT M02/M05 A3036 RMK AO1 SLP251
T10221050 50003 $





000
SAUS45 KRIW 040757
MTRP60
METAR KP60 040756Z AUTO 31003KT M02/M04 A3036 RMK AO1 SLP256
T10221044 $





000
SAUS45 KRIW 040657
MTRP60
METAR KP60 040656Z AUTO 00000KT M01/M04 A3035 RMK AO1 SLP254
T10111044 401331044 $





000
SAUS45 KRIW 040657
MTRP60
METAR KP60 040656Z AUTO 00000KT M01/M04 A3035 RMK AO1 SLP254
T10111044 401331044 $





000
SAUS45 KRIW 040557
MTRP60
METAR KP60 040556Z AUTO 00000KT M01/M04 A3034 RMK AO1 SLP250
T10061039 10133 21006 51006 $





000
SAUS45 KRIW 040557
MTRP60
METAR KP60 040556Z AUTO 00000KT M01/M04 A3034 RMK AO1 SLP250
T10061039 10133 21006 51006 $





000
SAUS45 KRIW 040457
MTRP60
METAR KP60 040456Z AUTO 00000KT 01/M04 A3034 RMK AO1 SLP249
T00061039 $





000
SAUS45 KRIW 040457
MTRP60
METAR KP60 040456Z AUTO 00000KT 01/M04 A3034 RMK AO1 SLP249
T00061039 $





000
SAUS45 KRIW 040357
MTRP60
METAR KP60 040356Z AUTO 00000KT 02/M03 A3033 RMK AO1 SLP261
T00171033 $





000
SAUS45 KRIW 040357
MTRP60
METAR KP60 040356Z AUTO 00000KT 02/M03 A3033 RMK AO1 SLP261
T00171033 $





000
SAUS45 KRIW 040257
MTRP60
METAR KP60 040256Z AUTO 31003KT 04/M02 A3032 RMK AO1 SLP249
T00391022 55000 $





000
SAUS45 KRIW 040257
MTRP60
METAR KP60 040256Z AUTO 31003KT 04/M02 A3032 RMK AO1 SLP249
T00391022 55000 $





000
SAUS45 KRIW 040157
MTRP60
METAR KP60 040156Z AUTO 00000KT 11/M06 A3031 RMK AO1 SLP232
T01111056 $





000
SAUS45 KRIW 040058
MTRP60
METAR KP60 040056Z AUTO 00000KT 12/M06 A3031 RMK AO1 SLP242
T01171056 $





000
SAUS45 KRIW 032358
MTRP60
METAR KP60 032356Z AUTO 09004KT 12/M06 A3032 RMK AO1 SLP242
T01221056 10128 20089 56007 $





000
SAUS45 KRIW 032258
MTRP60
METAR KP60 032256Z AUTO 00000KT 10/M04 A3033 RMK AO1 SLP251
T01001044 $





000
SAUS45 KRIW 032258
MTRP60
METAR KP60 032256Z AUTO 00000KT 10/M04 A3033 RMK AO1 SLP251
T01001044 $





000
SAUS45 KRIW 032157
MTRP60
METAR KP60 032156Z AUTO VRB06KT 12/M06 A3034 RMK AO1 SLP248
T01171056 $





000
SAUS45 KRIW 032057
MTRP60
METAR KP60 032056Z AUTO VRB03KT 12/M07 A3035 RMK AO1 SLP252
T01171067 56005 $





000
SAUS45 KRIW 032057
MTRP60
METAR KP60 032056Z AUTO VRB03KT 12/M07 A3035 RMK AO1 SLP252
T01171067 56005 $





000
SAUS45 KRIW 031957
MTRP60
METAR KP60 031956Z AUTO 12004KT 11/M08 A3035 RMK AO1 SLP253
T01111078 $





000
SAUS45 KRIW 031857
MTRP60
METAR KP60 031856Z AUTO 12005KT 10/M09 A3036 RMK AO1 SLP256
T01001094 $





000
SAUS45 KRIW 031658
MTRP60
METAR KP60 031656Z AUTO VRB03KT 08/M05 A3037 RMK AO1 SLP261
T00781050 $





000
SAUS45 KRIW 031658
MTRP60
METAR KP60 031656Z AUTO VRB03KT 08/M05 A3037 RMK AO1 SLP261
T00781050 $





000
SAUS45 KRIW 031558
MTRP60
METAR KP60 031556Z AUTO 11003KT 02/M05 A3038 RMK AO1 SLP280
T00221050 $





000
SAUS45 KRIW 031457
MTRP60
METAR KP60 031456Z AUTO 11003KT 02/M04 A3037 RMK AO1 SLP271
T00221044 51009 $





000
SAUS45 KRIW 031357
MTRP60
METAR KP60 031356Z AUTO 00000KT M01/M04 A3037 RMK AO1 SLP266
T10061044 $





000
SAUS45 KRIW 031257
MTRP60
METAR KP60 031256Z AUTO 00000KT M04/M06 A3036 RMK AO1 SLP263
T10391061 $





000
SAUS45 KRIW 031257
MTRP60
METAR KP60 031256Z AUTO 00000KT M04/M06 A3036 RMK AO1 SLP263
T10391061 $





000
SAUS45 KRIW 031157
MTRP60
METAR KP60 031156Z AUTO 00000KT M04/M06 A3034 RMK AO1 SLP252
T10391061 11006 21039 51005 $





000
SAUS45 KRIW 031157
MTRP60
METAR KP60 031156Z AUTO 00000KT M04/M06 A3034 RMK AO1 SLP252
T10391061 11006 21039 51005 $





000
SAUS45 KRIW 031057
MTRP60
METAR KP60 031056Z AUTO 00000KT M03/M06 A3034 RMK AO1 SLP248
T10331061 $





000
SAUS45 KRIW 031057
MTRP60
METAR KP60 031056Z AUTO 00000KT M03/M06 A3034 RMK AO1 SLP248
T10331061 $





000
SAUS45 KRIW 030958
MTRP60
METAR KP60 030956Z AUTO 00000KT M03/M06 A3033 RMK AO1 SLP246
T10281056 $





000
SAUS45 KRIW 030857
MTRP60
METAR KP60 030856Z AUTO 00000KT M03/M06 A3032 RMK AO1 SLP245
T10281056 50001 $





000
SAUS45 KRIW 030857
MTRP60
METAR KP60 030856Z AUTO 00000KT M03/M06 A3032 RMK AO1 SLP245
T10281056 50001 $





000
SAUS45 KRIW 030757
MTRP60
METAR KP60 030756Z AUTO 00000KT M02/M06 A3032 RMK AO1 SLP250
T10221056 $





000
SAUS45 KRIW 030657
MTRP60
METAR KP60 030656Z AUTO 00000KT M02/M05 A3032 RMK AO1 SLP251
T10171050 401281072 $





000
SAUS45 KRIW 030557
MTRP60
METAR KP60 030556Z AUTO 00000KT M01/M04 A3032 RMK AO1 SLP254
T10061044 10111 21011 51013 $





000
SAUS45 KRIW 030557
MTRP60
METAR KP60 030556Z AUTO 00000KT M01/M04 A3032 RMK AO1 SLP254
T10061044 10111 21011 51013 $





000
SAUS45 KRIW 030457
MTRP60
METAR KP60 030456Z AUTO 00000KT 01/M04 A3031 RMK AO1 SLP253
T00111044 $





000
SAUS45 KRIW 030358
MTRP60
METAR KP60 030356Z AUTO 00000KT 01/M04 A3029 RMK AO1 SLP254
T00111039 $





000
SAUS45 KRIW 030358
MTRP60
METAR KP60 030356Z AUTO 00000KT 01/M04 A3029 RMK AO1 SLP254
T00111039 $





000
SAUS45 KRIW 030258
MTRP60
METAR KP60 030256Z AUTO VRB03KT 03/M04 A3027 RMK AO1 SLP244
T00281039 53002 $





000
SAUS45 KRIW 030157
MTRP60
METAR KP60 030156Z AUTO 00000KT 07/M04 A3026 RMK AO1 SLP234
T00671039 $





000
SAUS45 KRIW 030057
MTRP60
METAR KP60 030056Z AUTO 00000KT 10/M10 A3026 RMK AO1 SLP234
T01001100 $





000
SAUS45 KRIW 030057
MTRP60
METAR KP60 030056Z AUTO 00000KT 10/M10 A3026 RMK AO1 SLP234
T01001100 $





000
SAUS45 KRIW 022358
MTRP60
METAR KP60 022356Z AUTO VRB03KT 11/M09 A3026 RMK AO1 SLP234
T01111089 10128 20044 55006 $





000
SAUS45 KRIW 022358
MTRP60
METAR KP60 022356Z AUTO VRB03KT 11/M09 A3026 RMK AO1 SLP234
T01111089 10128 20044 55006 $





000
SAUS45 KRIW 022257
MTRP60
METAR KP60 022256Z AUTO VRB04KT 12/M12 A3026 RMK AO1 SLP230
T01171117 $





000
SAUS45 KRIW 022257
MTRP60
METAR KP60 022256Z AUTO VRB04KT 12/M12 A3026 RMK AO1 SLP230
T01171117 $





000
SAUS45 KRIW 022157
MTRP60
METAR KP60 022156Z AUTO VRB04KT 12/M13 A3027 RMK AO1 SLP230
T01171133 $





000
SAUS45 KRIW 022057
MTRP60
METAR KP60 022056Z AUTO VRB03KT 11/M09 A3028 RMK AO1 SLP239
T01061094 57008 $





000
SAUS45 KRIW 021957
MTRP60
METAR KP60 021956Z AUTO 12005KT 08/M08 A3029 RMK AO1 SLP246
T00831083 $





000
SAUS45 KRIW 021857
MTRP60
METAR KP60 021856Z AUTO 10004KT 07/M09 A3030 RMK AO1 SLP253
T00721094 $





000
SAUS45 KRIW 021857
MTRP60
METAR KP60 021856Z AUTO 10004KT 07/M09 A3030 RMK AO1 SLP253
T00721094 $





000
SAUS45 KRIW 021757
MTRP60
METAR KP60 021756Z AUTO 11004KT 05/M09 A3031 RMK AO1 SLP260
T00501089 10050 21072 58003 $





000
SAUS45 KRIW 021757
MTRP60
METAR KP60 021756Z AUTO 11004KT 05/M09 A3031 RMK AO1 SLP260
T00501089 10050 21072 58003 $





000
SAUS45 KRIW 021657
MTRP60
METAR KP60 021656Z AUTO 11003KT 03/M08 A3031 RMK AO1 SLP267
T00281078 $





000
SAUS45 KRIW 021557
MTRP60
METAR KP60 021556Z AUTO 10003KT 01/M07 A3032 RMK AO1 SLP275
T00061072 $





000
SAUS45 KRIW 021458
MTRP60
METAR KP60 021456Z AUTO 11003KT M01/M06 A3032 RMK AO1 SLP275
T10111061 51007 $





000
SAUS45 KRIW 021458
MTRP60
METAR KP60 021456Z AUTO 11003KT M01/M06 A3032 RMK AO1 SLP275
T10111061 51007 $





000
SAUS45 KRIW 021357
MTRP60
METAR KP60 021356Z AUTO 00000KT M02/M07 A3032 RMK AO1 SLP267
T10221072 $





000
SAUS45 KRIW 021257
MTRP60
METAR KP60 021256Z AUTO 00000KT M06/M09 A3031 RMK AO1 SLP263
T10611089 $





000
SAUS45 KRIW 021158
MTRP60
METAR KP60 021156Z AUTO 00000KT M07/M09 A3030 RMK AO1 SLP258
T10671089 11033 21067 56001 $





000
SAUS45 KRIW 021158
MTRP60
METAR KP60 021156Z AUTO 00000KT M07/M09 A3030 RMK AO1 SLP258
T10671089 11033 21067 56001 $





000
SAUS45 KRIW 021057
MTRP60
METAR KP60 021056Z AUTO 00000KT M06/M08 A3030 RMK AO1 SLP254
T10611083 $





000
SAUS45 KRIW 021057
MTRP60
METAR KP60 021056Z AUTO 00000KT M06/M08 A3030 RMK AO1 SLP254
T10611083 $





000
SAUS45 KRIW 020957
MTRP60
METAR KP60 020956Z AUTO 00000KT M06/M08 A3029 RMK AO1 SLP255
T10561083 $





000
SAUS45 KRIW 020858
MTRP60
METAR KP60 020856Z AUTO 00000KT M05/M08 A3030 RMK AO1 SLP256
T10501078 53002 $





000
SAUS45 KRIW 020758
MTRP60
METAR KP60 020756Z AUTO 00000KT M04/M08 A3029 RMK AO1 SLP251
T10391078 $





000
SAUS45 KRIW 020657
MTRP60
METAR KP60 020656Z AUTO 00000KT M04/M07 A3029 RMK AO1 SLP257
T10391072 400831039 $





000
SAUS45 KRIW 020558
MTRP60
METAR KP60 020556Z AUTO 00000KT M03/M07 A3029 RMK AO1 SLP253
T10331072 10078 21033 51009 $





000
SAUS45 KRIW 020558
MTRP60
METAR KP60 020556Z AUTO 00000KT M03/M07 A3029 RMK AO1 SLP253
T10331072 10078 21033 51009 $





000
SAUS45 KRIW 020458
MTRP60
METAR KP60 020456Z AUTO 28003KT M03/M07 A3029 RMK AO1 SLP259
T10281072 $





000
SAUS45 KRIW 020357
MTRP60
METAR KP60 020356Z AUTO 00000KT M02/M08 A3028 RMK AO1 SLP256
T10221078 $





    US Dept of Commerce
    National Oceanic and Atmospheric Administration
    National Weather Service
    1325 East West Highway
    Silver Spring, MD 20910
    Page Author: NWS Internet Services Team
Disclaimer
Information Quality
Credits
Glossary
Privacy Policy
Freedom of Information Act (FOIA)
About Us
Career Opportunities